Woolavington, United Kingdom
Current Conditions -  °F | °C
As of 11:50 PM on Friday 21 Nov 2014 (Local Time) from EGDY Reporting Station
Haze Haze  
Wind Chill: 55°   Ceiling: 1100
Heat Index: 55°   Visibility: 5mi
Dew Point: 54°   Wind: 6mph
Humidity: 94%   Direction: 110°ESE
Pressure: 29.8"   Gusts: NA
Location:  51.16°N, 2.94°W
Report Text: EGDY 212350Z AUTO 11005KT 8000 HZ BKN011/// SCT016/// 13/12 Q1009 RERA
Loading
Personal Weather Stations






























Interactive Weather Map New forecast layout! Learn more

10-Day Weather Forecast

Advertisements
Track Severe Weather on mobile